sensor_id;sensor_type;location;lat;lon;timestamp;P1;durP1;ratioP1;P2;durP2;ratioP2
40793;SDS011;26502;51.886;15.604;2023-02-28T00:02:58;35.50;;;16.70;;
40793;SDS011;26502;51.886;15.604;2023-02-28T00:08:05;53.80;;;24.30;;
40793;SDS011;26502;51.886;15.604;2023-02-28T00:13:12;96.20;;;35.10;;
40793;SDS011;26502;51.886;15.604;2023-02-28T00:18:18;68.60;;;28.00;;
40793;SDS011;26502;51.886;15.604;2023-02-28T00:23:24;47.20;;;20.60;;
40793;SDS011;26502;51.886;15.604;2023-02-28T00:28:34;68.60;;;25.10;;
40793;SDS011;26502;51.886;15.604;2023-02-28T00:33:40;22.70;;;10.40;;
40793;SDS011;26502;51.886;15.604;2023-02-28T00:38:46;21.60;;;10.90;;
40793;SDS011;26502;51.886;15.604;2023-02-28T00:43:52;22.80;;;10.20;;
40793;SDS011;26502;51.886;15.604;2023-02-28T00:48:59;17.00;;;9.10;;
40793;SDS011;26502;51.886;15.604;2023-02-28T00:54:05;23.60;;;10.90;;
40793;SDS011;26502;51.886;15.604;2023-02-28T00:59:11;18.10;;;8.80;;
40793;SDS011;26502;51.886;15.604;2023-02-28T01:04:18;16.80;;;8.60;;
40793;SDS011;26502;51.886;15.604;2023-02-28T01:09:25;19.60;;;9.90;;
40793;SDS011;26502;51.886;15.604;2023-02-28T01:14:31;20.00;;;9.20;;
40793;SDS011;26502;51.886;15.604;2023-02-28T01:19:39;17.30;;;8.70;;
40793;SDS011;26502;51.886;15.604;2023-02-28T01:24:47;21.90;;;9.60;;
40793;SDS011;26502;51.886;15.604;2023-02-28T01:29:53;22.20;;;9.70;;
40793;SDS011;26502;51.886;15.604;2023-02-28T01:34:59;18.10;;;9.00;;
40793;SDS011;26502;51.886;15.604;2023-02-28T01:40:07;19.80;;;9.40;;
40793;SDS011;26502;51.886;15.604;2023-02-28T01:45:20;19.30;;;9.70;;
40793;SDS011;26502;51.886;15.604;2023-02-28T01:50:30;21.70;;;10.40;;
40793;SDS011;26502;51.886;15.604;2023-02-28T01:55:40;23.80;;;9.30;;
40793;SDS011;26502;51.886;15.604;2023-02-28T02:00:51;22.10;;;9.80;;
40793;SDS011;26502;51.886;15.604;2023-02-28T02:05:57;19.40;;;10.20;;
40793;SDS011;26502;51.886;15.604;2023-02-28T02:11:03;18.20;;;9.50;;
40793;SDS011;26502;51.886;15.604;2023-02-28T02:16:20;21.20;;;10.80;;
40793;SDS011;26502;51.886;15.604;2023-02-28T02:21:41;24.30;;;11.00;;
40793;SDS011;26502;51.886;15.604;2023-02-28T02:27:11;26.50;;;11.20;;
40793;SDS011;26502;51.886;15.604;2023-02-28T02:32:34;20.70;;;10.00;;
40793;SDS011;26502;51.886;15.604;2023-02-28T02:38:08;18.00;;;8.90;;
40793;SDS011;26502;51.886;15.604;2023-02-28T02:43:22;20.40;;;10.70;;
40793;SDS011;26502;51.886;15.604;2023-02-28T02:48:35;21.00;;;10.50;;
40793;SDS011;26502;51.886;15.604;2023-02-28T02:53:46;19.20;;;10.50;;
40793;SDS011;26502;51.886;15.604;2023-02-28T02:58:56;22.10;;;10.90;;
40793;SDS011;26502;51.886;15.604;2023-02-28T03:04:10;24.30;;;10.90;;
40793;SDS011;26502;51.886;15.604;2023-02-28T03:09:25;24.60;;;12.10;;
40793;SDS011;26502;51.886;15.604;2023-02-28T03:14:35;23.60;;;12.10;;
40793;SDS011;26502;51.886;15.604;2023-02-28T03:19:54;29.00;;;11.90;;
40793;SDS011;26502;51.886;15.604;2023-02-28T03:25:11;24.90;;;12.00;;
40793;SDS011;26502;51.886;15.604;2023-02-28T03:30:24;23.70;;;11.90;;
40793;SDS011;26502;51.886;15.604;2023-02-28T03:35:36;28.50;;;13.70;;
40793;SDS011;26502;51.886;15.604;2023-02-28T03:40:46;28.20;;;13.30;;
40793;SDS011;26502;51.886;15.604;2023-02-28T03:45:55;28.70;;;14.20;;
40793;SDS011;26502;51.886;15.604;2023-02-28T03:51:06;32.20;;;13.80;;
40793;SDS011;26502;51.886;15.604;2023-02-28T03:56:20;29.00;;;13.40;;
40793;SDS011;26502;51.886;15.604;2023-02-28T04:01:31;27.00;;;13.30;;
40793;SDS011;26502;51.886;15.604;2023-02-28T04:06:42;28.50;;;13.90;;
40793;SDS011;26502;51.886;15.604;2023-02-28T04:11:50;29.00;;;13.80;;
40793;SDS011;26502;51.886;15.604;2023-02-28T04:16:58;31.80;;;14.20;;
40793;SDS011;26502;51.886;15.604;2023-02-28T04:22:05;28.70;;;14.20;;
40793;SDS011;26502;51.886;15.604;2023-02-28T04:27:12;29.60;;;14.00;;
40793;SDS011;26502;51.886;15.604;2023-02-28T04:32:19;30.10;;;14.70;;
40793;SDS011;26502;51.886;15.604;2023-02-28T04:37:25;31.50;;;14.40;;
40793;SDS011;26502;51.886;15.604;2023-02-28T04:42:32;30.00;;;14.80;;
40793;SDS011;26502;51.886;15.604;2023-02-28T04:47:39;35.30;;;15.00;;
40793;SDS011;26502;51.886;15.604;2023-02-28T04:52:45;32.70;;;15.70;;
40793;SDS011;26502;51.886;15.604;2023-02-28T04:57:51;33.30;;;16.10;;
40793;SDS011;26502;51.886;15.604;2023-02-28T08:29:14;20.20;;;9.80;;
40793;SDS011;26502;51.886;15.604;2023-02-28T08:34:22;21.30;;;9.50;;
40793;SDS011;26502;51.886;15.604;2023-02-28T08:39:28;18.20;;;9.10;;
40793;SDS011;26502;51.886;15.604;2023-02-28T08:44:38;15.50;;;7.50;;
40793;SDS011;26502;51.886;15.604;2023-02-28T08:49:46;12.50;;;6.10;;
40793;SDS011;26502;51.886;15.604;2023-02-28T08:54:53;9.70;;;4.90;;
40793;SDS011;26502;51.886;15.604;2023-02-28T09:00:01;11.40;;;6.10;;
40793;SDS011;26502;51.886;15.604;2023-02-28T09:05:10;9.30;;;4.80;;
40793;SDS011;26502;51.886;15.604;2023-02-28T09:10:18;6.20;;;3.50;;
40793;SDS011;26502;51.886;15.604;2023-02-28T09:15:25;7.30;;;3.60;;
40793;SDS011;26502;51.886;15.604;2023-02-28T09:20:32;6.30;;;3.50;;
40793;SDS011;26502;51.886;15.604;2023-02-28T09:25:46;8.00;;;4.80;;
40793;SDS011;26502;51.886;15.604;2023-02-28T09:30:55;8.00;;;4.30;;
40793;SDS011;26502;51.886;15.604;2023-02-28T09:36:03;5.20;;;3.40;;
40793;SDS011;26502;51.886;15.604;2023-02-28T09:41:12;5.70;;;3.40;;
40793;SDS011;26502;51.886;15.604;2023-02-28T09:46:25;7.70;;;3.70;;
40793;SDS011;26502;51.886;15.604;2023-02-28T09:51:43;7.20;;;3.90;;
40793;SDS011;26502;51.886;15.604;2023-02-28T09:56:55;5.20;;;3.30;;
40793;SDS011;26502;51.886;15.604;2023-02-28T10:02:11;12.20;;;6.50;;
40793;SDS011;26502;51.886;15.604;2023-02-28T10:07:33;10.20;;;5.50;;
40793;SDS011;26502;51.886;15.604;2023-02-28T10:12:59;11.20;;;6.20;;
40793;SDS011;26502;51.886;15.604;2023-02-28T10:18:12;12.80;;;6.80;;
40793;SDS011;26502;51.886;15.604;2023-02-28T10:23:25;16.50;;;7.70;;
40793;SDS011;26502;51.886;15.604;2023-02-28T10:28:36;15.90;;;7.10;;
40793;SDS011;26502;51.886;15.604;2023-02-28T10:33:43;9.80;;;5.70;;
40793;SDS011;26502;51.886;15.604;2023-02-28T10:38:51;11.10;;;6.30;;
40793;SDS011;26502;51.886;15.604;2023-02-28T10:44:14;9.80;;;5.60;;
40793;SDS011;26502;51.886;15.604;2023-02-28T10:49:24;14.00;;;8.40;;
40793;SDS011;26502;51.886;15.604;2023-02-28T10:54:33;8.50;;;5.30;;
40793;SDS011;26502;51.886;15.604;2023-02-28T10:59:43;13.10;;;7.20;;
40793;SDS011;26502;51.886;15.604;2023-02-28T11:04:54;10.30;;;6.00;;
40793;SDS011;26502;51.886;15.604;2023-02-28T11:10:01;7.00;;;4.80;;
40793;SDS011;26502;51.886;15.604;2023-02-28T11:15:18;10.10;;;5.90;;
40793;SDS011;26502;51.886;15.604;2023-02-28T11:20:29;10.40;;;6.20;;
40793;SDS011;26502;51.886;15.604;2023-02-28T11:25:38;9.50;;;6.10;;
40793;SDS011;26502;51.886;15.604;2023-02-28T11:30:50;7.80;;;4.70;;
40793;SDS011;26502;51.886;15.604;2023-02-28T11:36:09;7.10;;;4.00;;
40793;SDS011;26502;51.886;15.604;2023-02-28T11:41:31;8.10;;;4.30;;
40793;SDS011;26502;51.886;15.604;2023-02-28T11:46:54;7.90;;;4.50;;
40793;SDS011;26502;51.886;15.604;2023-02-28T11:52:10;8.20;;;3.90;;
40793;SDS011;26502;51.886;15.604;2023-02-28T11:57:30;7.90;;;4.60;;
40793;SDS011;26502;51.886;15.604;2023-02-28T12:02:45;8.50;;;4.60;;
40793;SDS011;26502;51.886;15.604;2023-02-28T12:08:06;9.40;;;4.40;;
40793;SDS011;26502;51.886;15.604;2023-02-28T12:13:26;7.00;;;4.20;;
40793;SDS011;26502;51.886;15.604;2023-02-28T12:18:42;8.60;;;4.20;;
40793;SDS011;26502;51.886;15.604;2023-02-28T12:24:03;5.70;;;3.80;;
40793;SDS011;26502;51.886;15.604;2023-02-28T12:29:24;7.70;;;4.50;;
40793;SDS011;26502;51.886;15.604;2023-02-28T12:34:34;8.10;;;4.00;;
40793;SDS011;26502;51.886;15.604;2023-02-28T12:39:45;10.80;;;5.00;;
40793;SDS011;26502;51.886;15.604;2023-02-28T12:44:55;7.20;;;4.20;;
40793;SDS011;26502;51.886;15.604;2023-02-28T12:50:06;6.10;;;4.10;;
40793;SDS011;26502;51.886;15.604;2023-02-28T12:55:17;5.60;;;4.00;;
40793;SDS011;26502;51.886;15.604;2023-02-28T13:00:31;5.00;;;3.40;;
40793;SDS011;26502;51.886;15.604;2023-02-28T13:11:25;7.40;;;4.00;;
40793;SDS011;26502;51.886;15.604;2023-02-28T13:22:18;6.50;;;4.20;;
40793;SDS011;26502;51.886;15.604;2023-02-28T13:27:41;7.40;;;5.00;;
40793;SDS011;26502;51.886;15.604;2023-02-28T13:32:51;5.30;;;4.20;;
40793;SDS011;26502;51.886;15.604;2023-02-28T13:38:38;6.00;;;4.20;;
40793;SDS011;26502;51.886;15.604;2023-02-28T13:44:02;7.30;;;3.90;;
40793;SDS011;26502;51.886;15.604;2023-02-28T13:49:23;8.70;;;5.50;;
40793;SDS011;26502;51.886;15.604;2023-02-28T13:54:34;8.50;;;4.70;;
40793;SDS011;26502;51.886;15.604;2023-02-28T13:59:51;9.60;;;5.30;;
40793;SDS011;26502;51.886;15.604;2023-02-28T14:05:15;7.60;;;4.50;;
40793;SDS011;26502;51.886;15.604;2023-02-28T14:10:27;7.20;;;4.70;;
40793;SDS011;26502;51.886;15.604;2023-02-28T14:15:38;7.50;;;5.10;;
40793;SDS011;26502;51.886;15.604;2023-02-28T14:20:52;8.80;;;4.40;;
40793;SDS011;26502;51.886;15.604;2023-02-28T14:26:02;9.70;;;4.60;;
40793;SDS011;26502;51.886;15.604;2023-02-28T14:31:15;8.10;;;5.30;;
40793;SDS011;26502;51.886;15.604;2023-02-28T14:36:30;7.40;;;5.00;;
40793;SDS011;26502;51.886;15.604;2023-02-28T14:41:41;7.50;;;4.80;;
40793;SDS011;26502;51.886;15.604;2023-02-28T14:46:49;9.80;;;5.20;;
40793;SDS011;26502;51.886;15.604;2023-02-28T14:52:05;8.30;;;5.90;;
40793;SDS011;26502;51.886;15.604;2023-02-28T15:02:33;7.60;;;5.00;;
40793;SDS011;26502;51.886;15.604;2023-02-28T15:12:46;7.40;;;4.80;;
40793;SDS011;26502;51.886;15.604;2023-02-28T15:17:56;11.00;;;6.20;;
40793;SDS011;26502;51.886;15.604;2023-02-28T15:23:07;7.90;;;5.10;;
40793;SDS011;26502;51.886;15.604;2023-02-28T15:28:16;8.20;;;5.10;;
40793;SDS011;26502;51.886;15.604;2023-02-28T15:33:25;9.30;;;5.10;;
40793;SDS011;26502;51.886;15.604;2023-02-28T15:38:33;13.80;;;6.40;;
40793;SDS011;26502;51.886;15.604;2023-02-28T15:43:40;10.00;;;5.90;;
40793;SDS011;26502;51.886;15.604;2023-02-28T15:48:48;11.40;;;6.10;;
40793;SDS011;26502;51.886;15.604;2023-02-28T15:53:58;8.10;;;5.20;;
40793;SDS011;26502;51.886;15.604;2023-02-28T15:59:07;10.10;;;5.10;;
40793;SDS011;26502;51.886;15.604;2023-02-28T16:04:20;10.50;;;5.20;;
40793;SDS011;26502;51.886;15.604;2023-02-28T16:09:32;8.30;;;4.80;;
40793;SDS011;26502;51.886;15.604;2023-02-28T16:14:40;12.30;;;6.00;;
40793;SDS011;26502;51.886;15.604;2023-02-28T16:19:48;11.00;;;6.20;;
40793;SDS011;26502;51.886;15.604;2023-02-28T16:24:54;9.40;;;5.50;;
40793;SDS011;26502;51.886;15.604;2023-02-28T16:30:01;10.90;;;5.90;;
40793;SDS011;26502;51.886;15.604;2023-02-28T16:35:10;11.30;;;6.20;;
40793;SDS011;26502;51.886;15.604;2023-02-28T16:40:18;9.60;;;5.80;;
40793;SDS011;26502;51.886;15.604;2023-02-28T16:45:28;12.30;;;6.60;;
40793;SDS011;26502;51.886;15.604;2023-02-28T16:50:34;11.70;;;6.50;;
40793;SDS011;26502;51.886;15.604;2023-02-28T16:55:41;12.70;;;6.80;;
40793;SDS011;26502;51.886;15.604;2023-02-28T17:00:48;12.10;;;7.10;;
40793;SDS011;26502;51.886;15.604;2023-02-28T17:05:55;13.20;;;7.60;;
40793;SDS011;26502;51.886;15.604;2023-02-28T17:11:02;11.50;;;6.70;;
40793;SDS011;26502;51.886;15.604;2023-02-28T17:16:10;12.10;;;5.80;;
40793;SDS011;26502;51.886;15.604;2023-02-28T17:21:25;13.10;;;6.80;;
40793;SDS011;26502;51.886;15.604;2023-02-28T17:26:31;12.30;;;6.20;;
40793;SDS011;26502;51.886;15.604;2023-02-28T17:31:37;11.20;;;6.10;;
40793;SDS011;26502;51.886;15.604;2023-02-28T17:36:44;10.90;;;6.20;;
40793;SDS011;26502;51.886;15.604;2023-02-28T17:41:51;20.20;;;7.50;;
40793;SDS011;26502;51.886;15.604;2023-02-28T17:46:59;12.80;;;6.50;;
40793;SDS011;26502;51.886;15.604;2023-02-28T17:52:05;17.40;;;8.00;;
40793;SDS011;26502;51.886;15.604;2023-02-28T17:57:13;16.40;;;7.20;;
40793;SDS011;26502;51.886;15.604;2023-02-28T18:02:20;16.50;;;7.80;;
40793;SDS011;26502;51.886;15.604;2023-02-28T18:07:26;19.70;;;8.40;;
40793;SDS011;26502;51.886;15.604;2023-02-28T18:12:32;19.20;;;9.30;;
40793;SDS011;26502;51.886;15.604;2023-02-28T18:17:39;23.50;;;9.30;;
40793;SDS011;26502;51.886;15.604;2023-02-28T18:22:45;15.50;;;7.60;;
40793;SDS011;26502;51.886;15.604;2023-02-28T18:27:52;19.70;;;8.20;;
40793;SDS011;26502;51.886;15.604;2023-02-28T18:33:00;17.90;;;7.40;;
40793;SDS011;26502;51.886;15.604;2023-02-28T18:38:08;12.40;;;6.60;;
40793;SDS011;26502;51.886;15.604;2023-02-28T18:43:17;13.40;;;6.90;;
40793;SDS011;26502;51.886;15.604;2023-02-28T18:48:24;12.40;;;6.70;;
40793;SDS011;26502;51.886;15.604;2023-02-28T18:53:30;13.90;;;7.10;;
40793;SDS011;26502;51.886;15.604;2023-02-28T18:58:37;16.10;;;8.40;;
40793;SDS011;26502;51.886;15.604;2023-02-28T19:03:44;20.10;;;8.40;;
40793;SDS011;26502;51.886;15.604;2023-02-28T19:08:53;18.90;;;9.40;;
40793;SDS011;26502;51.886;15.604;2023-02-28T19:14:00;24.10;;;11.10;;
40793;SDS011;26502;51.886;15.604;2023-02-28T19:19:07;23.10;;;11.10;;
40793;SDS011;26502;51.886;15.604;2023-02-28T19:24:13;27.10;;;12.30;;
40793;SDS011;26502;51.886;15.604;2023-02-28T19:29:21;30.70;;;14.40;;
40793;SDS011;26502;51.886;15.604;2023-02-28T19:34:27;32.80;;;14.70;;
40793;SDS011;26502;51.886;15.604;2023-02-28T19:39:33;32.20;;;16.40;;
40793;SDS011;26502;51.886;15.604;2023-02-28T19:44:47;27.60;;;14.60;;
40793;SDS011;26502;51.886;15.604;2023-02-28T19:49:53;30.50;;;14.00;;
40793;SDS011;26502;51.886;15.604;2023-02-28T19:55:00;29.00;;;14.80;;
40793;SDS011;26502;51.886;15.604;2023-02-28T20:00:08;35.90;;;17.30;;
40793;SDS011;26502;51.886;15.604;2023-02-28T20:05:16;35.90;;;16.30;;
40793;SDS011;26502;51.886;15.604;2023-02-28T20:10:22;30.70;;;15.70;;
40793;SDS011;26502;51.886;15.604;2023-02-28T20:15:28;33.50;;;15.90;;
40793;SDS011;26502;51.886;15.604;2023-02-28T20:20:36;28.40;;;16.20;;
40793;SDS011;26502;51.886;15.604;2023-02-28T20:25:44;38.00;;;16.70;;
40793;SDS011;26502;51.886;15.604;2023-02-28T20:30:51;32.20;;;17.50;;
40793;SDS011;26502;51.886;15.604;2023-02-28T20:35:58;36.60;;;16.90;;
40793;SDS011;26502;51.886;15.604;2023-02-28T20:41:07;38.20;;;16.30;;
40793;SDS011;26502;51.886;15.604;2023-02-28T20:46:14;36.90;;;17.00;;
40793;SDS011;26502;51.886;15.604;2023-02-28T20:51:20;34.30;;;15.60;;
40793;SDS011;26502;51.886;15.604;2023-02-28T20:56:26;37.70;;;17.80;;
40793;SDS011;26502;51.886;15.604;2023-02-28T21:01:32;35.80;;;17.10;;
40793;SDS011;26502;51.886;15.604;2023-02-28T21:06:39;29.80;;;15.50;;
40793;SDS011;26502;51.886;15.604;2023-02-28T21:11:51;35.70;;;16.40;;
40793;SDS011;26502;51.886;15.604;2023-02-28T21:16:58;31.10;;;15.20;;
40793;SDS011;26502;51.886;15.604;2023-02-28T21:22:04;34.90;;;17.00;;
40793;SDS011;26502;51.886;15.604;2023-02-28T21:27:10;37.20;;;17.90;;
40793;SDS011;26502;51.886;15.604;2023-02-28T21:32:17;27.70;;;14.80;;
40793;SDS011;26502;51.886;15.604;2023-02-28T21:37:23;36.90;;;15.70;;
40793;SDS011;26502;51.886;15.604;2023-02-28T21:42:30;32.10;;;15.80;;
40793;SDS011;26502;51.886;15.604;2023-02-28T21:47:36;34.70;;;16.90;;
40793;SDS011;26502;51.886;15.604;2023-02-28T21:52:42;30.40;;;15.50;;
40793;SDS011;26502;51.886;15.604;2023-02-28T21:57:48;32.30;;;16.20;;
40793;SDS011;26502;51.886;15.604;2023-02-28T22:02:55;37.00;;;15.90;;
40793;SDS011;26502;51.886;15.604;2023-02-28T22:08:04;30.30;;;15.00;;
40793;SDS011;26502;51.886;15.604;2023-02-28T22:13:10;26.40;;;15.00;;
40793;SDS011;26502;51.886;15.604;2023-02-28T22:18:16;33.50;;;14.90;;
40793;SDS011;26502;51.886;15.604;2023-02-28T22:23:22;36.10;;;15.90;;
40793;SDS011;26502;51.886;15.604;2023-02-28T22:28:29;28.20;;;15.40;;
40793;SDS011;26502;51.886;15.604;2023-02-28T22:33:35;32.70;;;15.50;;
40793;SDS011;26502;51.886;15.604;2023-02-28T22:38:41;37.50;;;16.40;;
40793;SDS011;26502;51.886;15.604;2023-02-28T22:43:51;31.60;;;14.80;;
40793;SDS011;26502;51.886;15.604;2023-02-28T22:48:59;26.20;;;14.00;;
40793;SDS011;26502;51.886;15.604;2023-02-28T22:54:06;41.70;;;19.30;;
40793;SDS011;26502;51.886;15.604;2023-02-28T22:59:13;39.30;;;19.70;;
40793;SDS011;26502;51.886;15.604;2023-02-28T23:04:19;33.60;;;17.80;;
40793;SDS011;26502;51.886;15.604;2023-02-28T23:09:27;33.10;;;15.90;;
40793;SDS011;26502;51.886;15.604;2023-02-28T23:14:33;28.40;;;14.90;;
40793;SDS011;26502;51.886;15.604;2023-02-28T23:19:39;26.10;;;14.60;;
40793;SDS011;26502;51.886;15.604;2023-02-28T23:24:46;35.20;;;17.60;;
40793;SDS011;26502;51.886;15.604;2023-02-28T23:29:52;31.00;;;16.70;;
40793;SDS011;26502;51.886;15.604;2023-02-28T23:34:59;31.30;;;17.10;;
40793;SDS011;26502;51.886;15.604;2023-02-28T23:40:07;31.10;;;15.90;;
40793;SDS011;26502;51.886;15.604;2023-02-28T23:50:20;31.70;;;16.20;;
40793;SDS011;26502;51.886;15.604;2023-02-28T23:55:27;32.70;;;18.40;;
